createdAt,value
2022-09-09T00:00:43.289Z,99.99
2022-09-09T00:01:43.290Z,99.99
2022-09-09T00:02:43.378Z,99.99
2022-09-09T00:03:43.344Z,99.99
2022-09-09T00:04:43.207Z,99.99
2022-09-09T00:05:43.190Z,99.99
2022-09-09T00:06:43.170Z,99.99
2022-09-09T00:07:43.179Z,99.99
2022-09-09T00:08:43.137Z,99.99
2022-09-09T00:09:43.108Z,99.99
2022-09-09T00:10:43.613Z,99.99
2022-09-09T00:11:43.081Z,99.99
2022-09-09T00:12:43.048Z,99.99
2022-09-09T00:13:43.022Z,99.99
2022-09-09T00:14:43.026Z,99.99
2022-09-09T00:15:43.110Z,99.99
2022-09-09T00:16:42.971Z,99.99
2022-09-09T00:17:42.968Z,99.99
2022-09-09T00:18:42.955Z,99.99
2022-09-09T00:19:42.905Z,99.99
2022-09-09T00:20:42.885Z,99.99
2022-09-09T00:21:42.870Z,99.99
2022-09-09T00:22:42.839Z,99.99
2022-09-09T00:23:42.819Z,99.99
2022-09-09T00:24:42.838Z,99.99
2022-09-09T00:25:42.780Z,99.99
2022-09-09T00:26:42.766Z,99.99
2022-09-09T00:27:42.749Z,99.99
2022-09-09T00:28:42.718Z,99.99
2022-09-09T00:29:42.698Z,99.99
2022-09-09T00:30:42.756Z,99.99
2022-09-09T00:31:42.657Z,99.99
2022-09-09T00:32:42.635Z,99.99
2022-09-09T00:33:42.629Z,99.99
2022-09-09T00:34:42.593Z,99.99
2022-09-09T00:35:42.587Z,99.99
2022-09-09T00:36:42.581Z,99.99
2022-09-09T00:37:42.539Z,99.99
2022-09-09T00:38:42.509Z,99.99
2022-09-09T00:39:42.534Z,99.99
2022-09-09T00:40:42.483Z,99.99
2022-09-09T00:41:42.879Z,99.99
2022-09-09T00:42:42.431Z,99.99
2022-09-09T00:43:42.412Z,99.99
2022-09-09T00:44:42.389Z,99.99
2022-09-09T00:45:42.528Z,99.99
2022-09-09T00:46:42.385Z,99.99
2022-09-09T00:47:42.330Z,99.99
2022-09-09T00:48:42.306Z,99.99
2022-09-09T00:49:42.297Z,99.99
2022-09-09T00:50:42.273Z,99.99
2022-09-09T00:51:42.274Z,99.99
2022-09-09T00:52:42.247Z,99.99
2022-09-09T00:53:42.207Z,99.99
2022-09-09T00:54:42.197Z,99.99
2022-09-09T00:55:42.172Z,99.99
2022-09-09T00:56:42.150Z,99.99
2022-09-09T00:57:42.146Z,99.99
2022-09-09T00:58:42.125Z,99.99
2022-09-09T00:59:42.087Z,99.99
2022-09-09T01:00:42.076Z,99.99
2022-09-09T01:01:42.110Z,99.99
2022-09-09T01:02:42.116Z,99.99
2022-09-09T01:03:42.021Z,99.99
2022-09-09T01:04:41.997Z,99.99
2022-09-09T01:05:42.049Z,99.99
2022-09-09T01:06:41.960Z,99.99
2022-09-09T01:07:41.933Z,99.99
2022-09-09T01:08:41.911Z,99.99
2022-09-09T01:09:41.901Z,99.99
2022-09-09T01:10:41.885Z,99.99
2022-09-09T01:11:41.857Z,99.99
2022-09-09T01:12:41.846Z,99.99
2022-09-09T01:13:41.816Z,99.99
2022-09-09T01:14:41.795Z,99.99
2022-09-09T01:15:41.771Z,99.99
2022-09-09T01:16:41.790Z,99.99
2022-09-09T01:17:41.738Z,99.99
2022-09-09T01:18:41.729Z,99.99
2022-09-09T01:19:41.692Z,99.99
2022-09-09T01:20:41.683Z,99.99
2022-09-09T01:21:41.652Z,99.99
2022-09-09T01:22:41.654Z,99.99
2022-09-09T01:23:41.618Z,99.99
2022-09-09T01:24:41.603Z,99.99
2022-09-09T01:25:41.575Z,99.99
2022-09-09T01:26:41.554Z,99.99
2022-09-09T01:27:41.552Z,99.99
2022-09-09T01:28:41.553Z,99.99
2022-09-09T01:29:41.496Z,99.99
2022-09-09T01:30:41.527Z,99.99
2022-09-09T01:31:41.459Z,99.99
2022-09-09T01:32:41.465Z,99.99
2022-09-09T01:33:41.428Z,99.99
2022-09-09T01:34:41.406Z,99.99
2022-09-09T01:35:41.402Z,99.99
2022-09-09T01:36:41.370Z,99.99
2022-09-09T01:37:41.386Z,99.99
2022-09-09T01:38:41.370Z,99.99
2022-09-09T01:39:41.412Z,99.99
2022-09-09T01:40:41.306Z,99.99
2022-09-09T01:41:41.269Z,99.99
2022-09-09T01:42:41.251Z,99.99
2022-09-09T01:43:41.227Z,99.99
2022-09-09T01:44:41.229Z,99.99
2022-09-09T01:45:41.238Z,99.99
2022-09-09T01:46:41.170Z,99.99
2022-09-09T01:47:41.143Z,99.99
2022-09-09T01:48:41.144Z,99.99
2022-09-09T01:49:41.118Z,99.99
2022-09-09T01:50:41.096Z,99.99
2022-09-09T01:51:41.074Z,99.99
2022-09-09T01:52:41.069Z,99.99
2022-09-09T01:53:41.035Z,99.99
2022-09-09T01:54:41.018Z,99.99
2022-09-09T01:55:41.024Z,99.99
2022-09-09T01:56:40.974Z,99.99
2022-09-09T01:57:40.958Z,99.99
2022-09-09T01:58:40.935Z,99.99
2022-09-09T01:59:40.930Z,99.99
2022-09-09T02:00:40.895Z,99.99
2022-09-09T02:01:40.942Z,99.99
2022-09-09T02:02:40.931Z,99.99
2022-09-09T02:03:40.831Z,99.99
2022-09-09T02:04:40.811Z,99.99
2022-09-09T02:05:40.852Z,99.99
2022-09-09T02:06:40.782Z,99.99
2022-09-09T02:07:40.773Z,99.99
2022-09-09T02:08:40.737Z,99.99
2022-09-09T02:09:40.716Z,99.99
2022-09-09T02:10:40.694Z,99.99
2022-09-09T02:11:40.686Z,99.99
2022-09-09T02:12:40.660Z,99.99
2022-09-09T02:13:40.655Z,99.99
2022-09-09T02:14:40.618Z,99.99
2022-09-09T02:15:40.606Z,99.99
2022-09-09T02:16:40.647Z,99.99
2022-09-09T02:17:40.564Z,99.99
2022-09-09T02:18:40.536Z,99.99
2022-09-09T02:19:40.541Z,99.99
2022-09-09T02:20:40.507Z,99.99
2022-09-09T02:21:40.484Z,99.99
2022-09-09T02:22:40.482Z,99.99
2022-09-09T02:23:40.444Z,99.99
2022-09-09T02:24:40.421Z,99.99
2022-09-09T02:25:40.398Z,99.99
2022-09-09T02:26:40.378Z,99.99
2022-09-09T02:27:40.361Z,99.99
2022-09-09T02:28:40.348Z,99.99
2022-09-09T02:29:40.327Z,99.99
2022-09-09T02:30:40.367Z,99.99
2022-09-09T02:31:40.293Z,99.99
2022-09-09T02:32:40.310Z,99.99
2022-09-09T02:33:40.251Z,99.99
2022-09-09T02:34:40.228Z,99.99
2022-09-09T02:35:40.216Z,99.99
2022-09-09T02:36:40.191Z,99.99
2022-09-09T02:37:40.194Z,99.99
2022-09-09T02:38:40.149Z,99.99
2022-09-09T02:39:40.190Z,99.99
2022-09-09T02:40:40.112Z,99.99
2022-09-09T02:41:40.096Z,99.99
2022-09-09T02:42:40.074Z,99.99
2022-09-09T02:43:40.069Z,99.99
2022-09-09T02:44:40.038Z,99.99
2022-09-09T02:45:40.109Z,99.99
2022-09-09T02:46:40.000Z,99.99
2022-09-09T02:47:39.983Z,99.99
2022-09-09T02:48:39.985Z,99.99
2022-09-09T02:49:39.938Z,99.99
2022-09-09T02:50:39.919Z,99.99
2022-09-09T02:51:39.907Z,99.99
2022-09-09T02:52:39.878Z,99.99
2022-09-09T02:53:39.860Z,99.99
2022-09-09T02:54:39.839Z,99.99
2022-09-09T02:55:39.823Z,99.99
2022-09-09T02:56:39.804Z,99.99
2022-09-09T02:57:39.797Z,99.99
2022-09-09T02:58:39.760Z,99.99
2022-09-09T02:59:39.744Z,99.99
2022-09-09T03:00:39.724Z,99.99
2022-09-09T03:01:39.730Z,99.99
2022-09-09T03:02:39.749Z,99.99
2022-09-09T03:03:39.673Z,99.99
2022-09-09T03:04:39.681Z,99.99
2022-09-09T03:05:39.632Z,99.99
2022-09-09T03:06:39.605Z,99.99
2022-09-09T03:07:39.598Z,99.99
2022-09-09T03:08:39.564Z,99.99
2022-09-09T03:09:39.546Z,99.99
2022-09-09T03:10:39.528Z,99.99
2022-09-09T03:11:39.525Z,99.99
2022-09-09T03:12:39.530Z,99.99
2022-09-09T03:13:39.476Z,99.99
2022-09-09T03:14:39.448Z,99.99
2022-09-09T03:15:39.447Z,99.99
2022-09-09T03:16:39.500Z,99.99
2022-09-09T03:17:39.396Z,99.99
2022-09-09T03:18:39.385Z,99.99
2022-09-09T03:19:39.366Z,99.99
2022-09-09T03:20:39.337Z,99.99
2022-09-09T03:21:39.311Z,99.99
2022-09-09T03:22:39.338Z,99.99
2022-09-09T03:23:39.271Z,99.99
2022-09-09T03:24:39.255Z,99.99
2022-09-09T03:25:39.236Z,99.99
2022-09-09T03:26:39.214Z,99.99
2022-09-09T03:27:39.211Z,99.99
2022-09-09T03:28:39.175Z,99.99
2022-09-09T03:29:39.179Z,99.99
2022-09-09T03:30:39.146Z,99.99
2022-09-09T03:31:39.159Z,99.99
2022-09-09T03:32:39.103Z,99.99
2022-09-09T03:33:39.079Z,99.99
2022-09-09T03:34:39.063Z,99.99
2022-09-09T03:35:39.044Z,99.99
2022-09-09T03:36:39.032Z,99.99
2022-09-09T03:37:39.038Z,99.99
2022-09-09T03:38:39.005Z,99.99
2022-09-09T03:39:39.055Z,99.99
2022-09-09T03:40:38.947Z,99.99
2022-09-09T03:41:38.961Z,99.99
2022-09-09T03:42:38.910Z,99.99
2022-09-09T03:43:38.892Z,99.99
2022-09-09T03:44:38.870Z,99.99
2022-09-09T03:45:38.915Z,99.99
2022-09-09T03:46:38.866Z,99.99
2022-09-09T03:47:38.826Z,99.99
2022-09-09T03:48:38.795Z,99.99
2022-09-09T03:49:38.794Z,99.99
2022-09-09T03:50:38.768Z,99.99
2022-09-09T03:51:38.738Z,99.99
2022-09-09T03:52:38.719Z,99.99
2022-09-09T03:53:38.699Z,99.99
2022-09-09T03:54:38.675Z,99.99
2022-09-09T03:55:38.650Z,99.99
2022-09-09T03:56:38.630Z,99.99
2022-09-09T03:57:38.614Z,99.99
2022-09-09T03:58:38.604Z,99.99
2022-09-09T03:59:38.656Z,99.99
2022-09-09T04:00:38.582Z,99.99
2022-09-09T04:01:38.538Z,99.99
2022-09-09T04:02:38.597Z,99.99
2022-09-09T04:03:38.519Z,99.99
2022-09-09T04:04:38.512Z,99.99
2022-09-09T04:05:38.465Z,99.99
2022-09-09T04:06:38.447Z,99.99
2022-09-09T04:07:38.419Z,99.99
2022-09-09T04:08:38.424Z,99.99
2022-09-09T04:09:38.415Z,99.99
2022-09-09T04:10:38.390Z,99.99
2022-09-09T04:11:38.339Z,99.99
2022-09-09T04:12:38.346Z,99.99
2022-09-09T04:13:38.295Z,99.99
2022-09-09T04:14:38.287Z,99.99
2022-09-09T04:15:38.258Z,99.99
2022-09-09T04:16:38.324Z,99.99
2022-09-09T04:17:38.223Z,99.99
2022-09-09T04:18:38.354Z,99.99
2022-09-09T04:19:38.202Z,99.99
2022-09-09T04:20:38.220Z,99.99
2022-09-09T04:21:38.170Z,99.99
2022-09-09T04:22:38.145Z,99.99
2022-09-09T04:23:38.125Z,99.99
2022-09-09T04:24:38.077Z,99.99
2022-09-09T04:25:38.084Z,99.99
2022-09-09T04:26:38.039Z,99.99
2022-09-09T04:27:38.039Z,99.99
2022-09-09T04:28:38.238Z,99.99
2022-09-09T04:29:37.988Z,99.99
2022-09-09T04:30:37.955Z,99.99
2022-09-09T04:31:37.947Z,99.99
2022-09-09T04:32:37.914Z,99.99
2022-09-09T04:33:40.291Z,99.99
2022-09-09T04:34:37.885Z,99.99
2022-09-09T04:35:37.863Z,99.99
2022-09-09T04:36:37.889Z,99.99
2022-09-09T04:37:37.838Z,99.99
2022-09-09T04:38:37.933Z,99.99
2022-09-09T04:39:37.826Z,99.99
2022-09-09T04:40:37.778Z,99.99
2022-09-09T04:41:37.737Z,99.99
2022-09-09T04:42:37.718Z,99.99
2022-09-09T04:43:37.698Z,99.99
2022-09-09T04:44:37.674Z,99.99
2022-09-09T04:45:37.700Z,99.99
2022-09-09T04:46:37.693Z,99.99
2022-09-09T04:47:37.612Z,99.99
2022-09-09T04:48:37.776Z,99.99
2022-09-09T04:49:37.598Z,99.99
2022-09-09T04:50:37.605Z,99.99
2022-09-09T04:51:37.579Z,99.99
2022-09-09T04:52:37.554Z,99.99
2022-09-09T04:53:37.526Z,99.99
2022-09-09T04:54:37.502Z,99.99
2022-09-09T04:55:37.480Z,99.99
2022-09-09T04:56:37.472Z,99.99
2022-09-09T04:57:37.420Z,99.99
2022-09-09T04:58:37.541Z,99.99
2022-09-09T04:59:37.381Z,99.99
2022-09-09T05:00:37.411Z,99.99
2022-09-09T05:01:37.327Z,99.99
2022-09-09T05:02:37.374Z,99.99
2022-09-09T05:03:37.295Z,99.99
2022-09-09T05:04:37.275Z,99.99
2022-09-09T05:05:37.250Z,99.99
2022-09-09T05:06:37.247Z,99.99
2022-09-09T05:07:37.224Z,99.99
2022-09-09T05:08:37.307Z,99.99
2022-09-09T05:09:37.181Z,99.99
2022-09-09T05:10:37.158Z,99.99
2022-09-09T05:11:37.134Z,99.99
2022-09-09T05:12:37.118Z,99.99
2022-09-09T05:13:41.251Z,99.99
2022-09-09T05:14:37.108Z,99.99
2022-09-09T05:15:37.066Z,99.99
2022-09-09T05:16:37.077Z,99.99
2022-09-09T05:17:37.045Z,99.99
2022-09-09T05:18:37.161Z,99.99
2022-09-09T05:19:36.980Z,99.99
2022-09-09T05:20:36.955Z,99.99
2022-09-09T05:21:36.930Z,99.99
2022-09-09T05:22:36.915Z,99.99
2022-09-09T05:23:36.898Z,99.99
2022-09-09T05:24:36.873Z,99.99
2022-09-09T05:25:36.873Z,99.99
2022-09-09T05:26:36.838Z,99.99
2022-09-09T05:27:36.823Z,99.99
2022-09-09T05:28:37.026Z,99.99
2022-09-09T05:29:36.773Z,99.99
2022-09-09T05:30:36.754Z,99.99
2022-09-09T05:31:36.787Z,99.99
2022-09-09T05:32:36.715Z,99.99
2022-09-09T05:33:36.699Z,99.99
2022-09-09T05:34:36.724Z,99.99
2022-09-09T05:35:36.654Z,99.99
2022-09-09T05:36:36.639Z,99.99
2022-09-09T05:37:36.654Z,99.99
2022-09-09T05:38:36.616Z,99.99
2022-09-09T05:39:36.606Z,99.99
2022-09-09T05:40:36.564Z,99.99
2022-09-09T05:41:37.173Z,99.99
2022-09-09T05:42:36.546Z,99.99
2022-09-09T05:43:36.504Z,99.99
2022-09-09T05:44:36.483Z,99.99
2022-09-09T05:45:36.466Z,99.99
2022-09-09T05:46:36.523Z,99.99
2022-09-09T05:47:36.429Z,99.99
2022-09-09T05:48:36.545Z,99.99
2022-09-09T05:49:36.394Z,99.99
2022-09-09T05:50:36.366Z,99.99
2022-09-09T05:51:36.348Z,99.99
2022-09-09T05:52:36.330Z,99.99
2022-09-09T05:53:36.304Z,99.99
2022-09-09T05:54:36.297Z,99.99
2022-09-09T05:55:36.305Z,99.99
2022-09-09T05:56:36.257Z,99.99
2022-09-09T05:57:36.230Z,99.99
2022-09-09T05:58:36.411Z,99.99
2022-09-09T05:59:36.196Z,99.99
2022-09-09T06:00:36.176Z,99.99
2022-09-09T06:01:36.193Z,99.99
2022-09-09T06:02:36.285Z,99.99
2022-09-09T06:03:36.115Z,99.99
2022-09-09T06:04:36.101Z,99.99
2022-09-09T06:05:36.112Z,99.99
2022-09-09T06:06:36.071Z,99.99
2022-09-09T06:07:36.042Z,99.99
2022-09-09T06:08:36.221Z,99.99
2022-09-09T06:09:36.010Z,99.99
2022-09-09T06:10:36.015Z,99.99
2022-09-09T06:11:35.966Z,99.99
2022-09-09T06:12:35.951Z,99.99
2022-09-09T06:13:35.925Z,99.99
2022-09-09T06:14:35.921Z,99.99
2022-09-09T06:15:35.925Z,99.99
2022-09-09T06:16:35.909Z,99.99
2022-09-09T06:17:35.860Z,99.99
2022-09-09T06:18:35.892Z,99.99
2022-09-09T06:19:35.813Z,99.99
2022-09-09T06:20:35.795Z,99.99
2022-09-09T06:21:35.782Z,99.99
2022-09-09T06:22:35.769Z,99.99
2022-09-09T06:23:35.742Z,99.99
2022-09-09T06:24:35.728Z,99.99
2022-09-09T06:25:35.704Z,99.99
2022-09-09T06:26:35.700Z,99.99
2022-09-09T06:27:35.685Z,99.99
2022-09-09T06:28:35.665Z,99.99
2022-09-09T06:29:35.649Z,99.99
2022-09-09T06:30:35.629Z,99.99
2022-09-09T06:31:35.841Z,99.99
2022-09-09T06:32:35.596Z,99.99
2022-09-09T06:33:35.554Z,99.99
2022-09-09T06:34:35.541Z,99.99
2022-09-09T06:35:35.524Z,99.99
2022-09-09T06:36:35.513Z,99.99
2022-09-09T06:37:35.520Z,99.99
2022-09-09T06:38:35.609Z,99.99
2022-09-09T06:39:35.494Z,99.99
2022-09-09T06:40:35.450Z,99.99
2022-09-09T06:41:35.426Z,99.99
2022-09-09T06:42:35.401Z,99.99
2022-09-09T06:43:35.383Z,99.99
2022-09-09T06:44:35.707Z,99.99
2022-09-09T06:45:35.346Z,99.99
2022-09-09T06:46:35.391Z,99.99
2022-09-09T06:47:35.314Z,99.99
2022-09-09T06:48:35.367Z,99.99
2022-09-09T06:49:35.310Z,99.99
2022-09-09T06:50:35.253Z,99.99
2022-09-09T06:51:35.245Z,99.99
2022-09-09T06:52:35.230Z,99.99
2022-09-09T06:53:35.214Z,99.99
2022-09-09T06:54:35.183Z,99.99
2022-09-09T06:55:35.160Z,99.99
2022-09-09T06:56:35.146Z,99.99
2022-09-09T06:57:37.652Z,99.99
2022-09-09T06:58:35.175Z,99.99
2022-09-09T06:59:35.090Z,99.99
2022-09-09T07:00:35.143Z,99.99
2022-09-09T07:01:35.145Z,99.99
2022-09-09T07:02:35.043Z,99.99
2022-09-09T07:03:35.014Z,99.99
2022-09-09T07:04:35.013Z,99.99
2022-09-09T07:05:34.982Z,99.99
2022-09-09T07:06:34.969Z,99.99
2022-09-09T07:07:34.947Z,99.99
2022-09-09T07:08:35.009Z,99.99
2022-09-09T07:09:34.936Z,99.99
2022-09-09T07:10:34.919Z,99.99
2022-09-09T07:11:34.876Z,99.99
2022-09-09T07:12:34.867Z,99.99
2022-09-09T07:13:34.858Z,99.99
2022-09-09T07:14:34.830Z,99.99
2022-09-09T07:15:34.814Z,99.99
2022-09-09T07:16:34.881Z,99.99
2022-09-09T07:17:34.791Z,99.99
2022-09-09T07:18:34.821Z,99.99
2022-09-09T07:19:34.758Z,99.99
2022-09-09T07:20:34.758Z,99.99
2022-09-09T07:21:34.715Z,99.99
2022-09-09T07:22:34.697Z,99.99
2022-09-09T07:23:36.444Z,99.99
2022-09-09T07:24:34.664Z,99.99
2022-09-09T07:25:34.649Z,99.99
2022-09-09T07:26:34.629Z,99.99
2022-09-09T07:27:34.612Z,99.99
2022-09-09T07:28:34.662Z,99.99
2022-09-09T07:29:34.578Z,99.99
2022-09-09T07:30:34.562Z,99.99
2022-09-09T07:31:34.654Z,99.99
2022-09-09T07:32:34.525Z,99.99
2022-09-09T07:33:34.558Z,99.99
2022-09-09T07:34:34.594Z,99.99
2022-09-09T07:35:34.482Z,99.99
2022-09-09T07:36:34.458Z,99.99
2022-09-09T07:37:34.442Z,99.99
2022-09-09T07:38:34.547Z,99.99
2022-09-09T07:39:34.488Z,99.99
2022-09-09T07:40:34.401Z,99.99
2022-09-09T07:41:34.409Z,99.99
2022-09-09T07:42:34.360Z,99.99
2022-09-09T07:43:34.353Z,99.99
2022-09-09T07:44:34.342Z,99.99
2022-09-09T07:45:34.325Z,99.99
2022-09-09T07:46:34.335Z,99.99
2022-09-09T07:47:34.284Z,99.99
2022-09-09T07:48:34.340Z,99.99
2022-09-09T07:49:34.256Z,99.99
2022-09-09T07:50:34.275Z,99.99
2022-09-09T07:51:34.226Z,99.99
2022-09-09T07:52:34.213Z,99.99
2022-09-09T07:53:34.234Z,99.99
2022-09-09T07:54:34.177Z,99.99
2022-09-09T07:55:34.186Z,99.99
2022-09-09T07:56:34.153Z,99.99
2022-09-09T07:57:34.142Z,99.99
2022-09-09T07:58:38.307Z,99.99
2022-09-09T07:59:34.112Z,99.99
2022-09-09T08:00:34.080Z,99.99
2022-09-09T08:01:34.084Z,99.99
2022-09-09T08:02:34.072Z,99.99
2022-09-09T08:03:34.128Z,99.99
2022-09-09T08:04:34.005Z,99.99
2022-09-09T08:05:34.433Z,99.99
2022-09-09T08:06:34.011Z,99.99
2022-09-09T08:07:33.957Z,99.99
2022-09-09T08:08:33.950Z,99.99
2022-09-09T08:09:33.928Z,99.99
2022-09-09T08:10:33.938Z,99.99
2022-09-09T08:11:38.639Z,99.99
2022-09-09T08:12:36.201Z,99.99
2022-09-09T08:13:33.916Z,99.99
2022-09-09T08:14:33.847Z,99.99
2022-09-09T08:15:33.835Z,99.99
2022-09-09T08:16:33.801Z,99.99
2022-09-09T08:17:33.794Z,99.99
2022-09-09T08:18:33.778Z,99.99
2022-09-09T08:19:33.769Z,99.99
2022-09-09T08:20:33.878Z,99.99
2022-09-09T08:21:33.729Z,99.99
2022-09-09T08:22:33.738Z,99.99
2022-09-09T08:23:33.789Z,99.99
2022-09-09T08:24:33.671Z,99.99
2022-09-09T08:25:33.659Z,99.99
2022-09-09T08:26:33.658Z,99.99
2022-09-09T08:27:33.628Z,99.99
2022-09-09T08:28:33.628Z,99.99
2022-09-09T08:29:33.624Z,99.99
2022-09-09T08:30:33.592Z,99.99
2022-09-09T08:31:33.567Z,99.99
2022-09-09T08:32:33.553Z,99.99
2022-09-09T08:33:33.537Z,99.99
2022-09-09T08:34:33.517Z,99.99
2022-09-09T08:35:33.538Z,99.99
2022-09-09T08:36:33.494Z,99.99
2022-09-09T08:37:33.495Z,99.99
2022-09-09T08:38:33.472Z,99.99
2022-09-09T08:39:33.497Z,99.99
2022-09-09T08:40:33.425Z,99.99
2022-09-09T08:41:33.478Z,99.99
2022-09-09T08:42:33.393Z,99.99
2022-09-09T08:43:33.492Z,99.99
2022-09-09T08:44:33.381Z,99.99
2022-09-09T08:45:33.345Z,99.99
2022-09-09T08:46:33.482Z,99.99
2022-09-09T08:47:34.177Z,99.99
2022-09-09T08:48:33.394Z,99.99
2022-09-09T08:49:33.292Z,99.99
2022-09-09T08:50:33.281Z,99.99
2022-09-09T08:51:33.263Z,99.99
2022-09-09T08:52:33.247Z,99.99
2022-09-09T08:53:33.236Z,99.99
2022-09-09T08:54:50.997Z,99.99
2022-09-09T08:55:33.209Z,99.99
2022-09-09T08:56:33.186Z,99.99
2022-09-09T08:57:33.175Z,99.99
2022-09-09T08:58:33.208Z,99.99
2022-09-09T08:59:33.147Z,99.99
2022-09-09T09:00:33.127Z,99.99
2022-09-09T09:01:33.208Z,99.99
2022-09-09T09:02:33.102Z,99.99
2022-09-09T09:03:33.143Z,99.99
2022-09-09T09:04:33.168Z,99.99
2022-09-09T09:05:33.097Z,99.99
2022-09-09T09:06:33.058Z,99.99
2022-09-09T09:07:33.201Z,99.99
2022-09-09T09:08:33.070Z,99.99
2022-09-09T09:09:33.028Z,99.99
2022-09-09T09:10:43.211Z,99.99
2022-09-09T09:11:32.970Z,99.99
2022-09-09T09:12:32.958Z,99.99
2022-09-09T09:13:32.940Z,99.99
2022-09-09T09:14:32.939Z,99.99
2022-09-09T09:15:32.932Z,99.99
2022-09-09T09:16:32.919Z,99.99
2022-09-09T09:17:32.932Z,99.99
2022-09-09T09:18:32.918Z,99.99
2022-09-09T09:19:32.858Z,99.99
2022-09-09T09:20:32.842Z,99.99
2022-09-09T09:21:32.836Z,99.99
2022-09-09T09:22:32.853Z,99.99
2022-09-09T09:23:32.804Z,99.99
2022-09-09T09:24:32.788Z,99.99
2022-09-09T09:25:32.771Z,99.99
2022-09-09T09:26:32.818Z,99.99
2022-09-09T09:27:32.835Z,99.99
2022-09-09T09:28:32.860Z,99.99
2022-09-09T09:29:32.745Z,98.05
2022-09-09T09:30:32.739Z,99.27
2022-09-09T09:31:32.743Z,96.11
2022-09-09T09:32:32.678Z,96.94
2022-09-09T09:33:32.669Z,98.68
2022-09-09T09:34:32.655Z,98.00
2022-09-09T09:35:35.102Z,97.67
2022-09-09T09:36:32.629Z,99.99
2022-09-09T09:37:33.021Z,99.99
2022-09-09T09:40:32.592Z,99.99
2022-09-09T09:41:32.566Z,99.99
2022-09-09T09:42:32.562Z,99.99
2022-09-09T09:43:32.604Z,98.97
2022-09-09T09:44:32.531Z,96.98
2022-09-09T09:45:32.544Z,98.05
2022-09-09T09:46:32.551Z,96.21
2022-09-09T09:47:32.503Z,97.28
2022-09-09T09:48:32.482Z,97.62
2022-09-09T09:49:32.465Z,99.70
2022-09-09T09:50:32.460Z,98.83
2022-09-09T09:51:32.443Z,99.21
2022-09-09T09:52:32.432Z,97.81
2022-09-09T09:53:32.480Z,97.96
2022-09-09T09:54:32.439Z,95.92
2022-09-09T09:55:32.477Z,94.62
2022-09-09T09:56:32.401Z,95.78
2022-09-09T09:57:32.436Z,97.57
2022-09-09T09:58:32.419Z,97.33
2022-09-09T09:59:40.521Z,99.26
2022-09-09T10:00:32.372Z,99.69
2022-09-09T10:01:32.437Z,99.99
2022-09-09T10:02:32.335Z,99.99
2022-09-09T10:03:32.307Z,99.99
2022-09-09T10:04:32.322Z,99.99
2022-09-09T10:05:36.010Z,99.99
2022-09-09T10:06:32.275Z,99.99
2022-09-09T10:07:32.256Z,99.99
2022-09-09T10:08:32.295Z,99.99
2022-09-09T10:09:32.244Z,99.99
2022-09-09T10:10:32.226Z,99.99
2022-09-09T10:11:32.247Z,99.99
2022-09-09T10:12:32.196Z,99.99
2022-09-09T10:13:32.207Z,99.99
2022-09-09T10:14:32.173Z,99.99
2022-09-09T10:15:32.194Z,99.99
2022-09-09T10:16:32.153Z,99.99
2022-09-09T10:17:32.138Z,99.99
2022-09-09T10:18:32.167Z,99.99
2022-09-09T10:19:32.111Z,99.99
2022-09-09T10:20:32.101Z,99.99
2022-09-09T10:21:33.398Z,99.99
2022-09-09T10:22:32.074Z,98.83
2022-09-09T10:23:32.064Z,98.88
2022-09-09T10:24:32.050Z,98.49
2022-09-09T10:25:32.040Z,97.08
2022-09-09T10:26:32.038Z,95.68
2022-09-09T10:27:32.037Z,99.26
2022-09-09T10:28:32.009Z,99.99
2022-09-09T10:29:32.015Z,99.99
2022-09-09T10:30:31.983Z,99.99
2022-09-09T10:31:31.984Z,99.02
2022-09-09T10:32:31.962Z,99.99
2022-09-09T10:33:32.812Z,99.99
2022-09-09T10:34:31.939Z,99.99
2022-09-09T10:35:31.923Z,99.99
2022-09-09T10:36:31.914Z,99.99
2022-09-09T10:37:31.896Z,99.99
2022-09-09T10:38:31.887Z,99.99
2022-09-09T10:39:31.907Z,99.99
2022-09-09T10:40:31.862Z,99.99
2022-09-09T10:41:31.850Z,99.99
2022-09-09T10:42:31.839Z,99.99
2022-09-09T10:43:31.845Z,99.99
2022-09-09T10:44:31.815Z,99.99
2022-09-09T10:45:31.794Z,99.99
2022-09-09T10:46:31.863Z,99.99
2022-09-09T10:47:31.776Z,99.99
2022-09-09T10:48:31.764Z,99.99
2022-09-09T10:49:31.760Z,99.99
2022-09-09T10:50:59.950Z,99.99
2022-09-09T10:51:31.726Z,98.93
2022-09-09T10:52:31.716Z,96.65
2022-09-09T10:53:31.702Z,98.35
2022-09-09T10:54:31.763Z,95.92
2022-09-09T10:55:31.687Z,96.31
2022-09-09T10:56:31.677Z,96.46
2022-09-09T10:57:31.657Z,97.72
2022-09-09T10:58:31.654Z,98.15
2022-09-09T10:59:31.643Z,98.10
2022-09-09T11:00:31.642Z,98.05
2022-09-09T11:01:31.671Z,96.75
2022-09-09T11:02:31.615Z,97.67
2022-09-09T11:03:31.600Z,98.68
2022-09-09T11:04:31.593Z,98.49
2022-09-09T11:05:31.579Z,99.51
2022-09-09T11:06:31.599Z,99.99
2022-09-09T11:07:31.561Z,99.99
2022-09-09T11:08:31.576Z,99.99
2022-09-09T11:09:31.566Z,99.99
2022-09-09T11:10:31.538Z,99.99
2022-09-09T11:11:31.533Z,99.99
2022-09-09T11:12:31.527Z,99.74
2022-09-09T11:13:31.529Z,99.99
2022-09-09T11:14:35.348Z,99.99
2022-09-09T11:15:31.513Z,97.42
2022-09-09T11:16:31.540Z,94.91
2022-09-09T11:17:31.529Z,94.62
2022-09-09T11:18:31.467Z,96.80
2022-09-09T11:19:31.464Z,96.94
2022-09-09T11:20:31.453Z,96.41
2022-09-09T11:21:31.446Z,94.38
2022-09-09T11:22:31.451Z,97.81
2022-09-09T11:23:31.459Z,95.49
2022-09-09T11:24:31.428Z,95.01
2022-09-09T11:25:31.415Z,95.29
2022-09-09T11:26:31.405Z,96.94
2022-09-09T11:27:31.394Z,95.73
2022-09-09T11:28:31.396Z,92.83
2022-09-09T11:29:31.405Z,92.40
2022-09-09T11:30:55.008Z,95.92
2022-09-09T11:31:31.383Z,94.47
2022-09-09T11:32:31.499Z,91.86
2022-09-09T11:33:31.345Z,91.66
2022-09-09T11:34:31.370Z,92.54
2022-09-09T11:35:31.343Z,92.87
2022-09-09T11:36:31.347Z,93.70
2022-09-09T11:37:31.325Z,90.60
2022-09-09T11:38:31.315Z,93.85
2022-09-09T11:39:31.460Z,93.26
2022-09-09T11:40:31.342Z,93.41
2022-09-09T11:41:31.298Z,96.07
2022-09-09T11:42:31.288Z,95.68
2022-09-09T11:43:31.283Z,94.04
2022-09-09T11:44:31.341Z,93.79
2022-09-09T11:45:31.267Z,94.47
2022-09-09T11:46:31.308Z,93.41
2022-09-09T11:47:31.333Z,93.12
2022-09-09T11:48:31.252Z,93.74
2022-09-09T11:49:31.240Z,90.36
2022-09-09T11:50:31.290Z,91.52
2022-09-09T11:51:31.258Z,93.56
2022-09-09T11:52:31.223Z,95.54
2022-09-09T11:53:31.216Z,96.07
2022-09-09T11:54:31.210Z,97.14
2022-09-09T11:55:31.195Z,99.36
2022-09-09T11:56:31.189Z,97.28
2022-09-09T11:57:31.183Z,97.38
2022-09-09T11:58:31.175Z,97.91
2022-09-09T11:59:31.173Z,98.00
2022-09-09T12:00:31.158Z,98.10
2022-09-09T12:01:31.156Z,99.11
2022-09-09T12:02:31.181Z,97.42
2022-09-09T12:03:31.132Z,98.39
2022-09-09T12:04:31.228Z,96.60
2022-09-09T12:05:31.182Z,97.28
2022-09-09T12:06:31.110Z,96.99
2022-09-09T12:07:31.175Z,98.83
2022-09-09T12:08:31.173Z,99.16
2022-09-09T12:09:31.134Z,96.70
2022-09-09T12:10:31.081Z,99.26
2022-09-09T12:11:31.086Z,96.70
2022-09-09T12:12:31.084Z,98.54
2022-09-09T12:13:31.046Z,97.86
2022-09-09T12:14:31.037Z,96.36
2022-09-09T12:15:31.046Z,95.54
2022-09-09T12:16:31.064Z,95.64
2022-09-09T12:17:31.033Z,95.50
2022-09-09T12:18:31.034Z,97.14
2022-09-09T12:19:30.985Z,97.33
2022-09-09T12:20:31.031Z,97.96
2022-09-09T12:21:30.971Z,98.63
2022-09-09T12:22:30.962Z,99.21
2022-09-09T12:23:30.944Z,98.83
2022-09-09T12:24:30.944Z,99.99
2022-09-09T12:25:30.932Z,99.99
2022-09-09T12:26:30.919Z,99.88
2022-09-09T12:27:30.906Z,99.98
2022-09-09T12:28:30.895Z,99.99
2022-09-09T12:29:30.904Z,99.79
2022-09-09T12:30:30.902Z,99.99
2022-09-09T12:31:30.855Z,99.99
2022-09-09T12:32:30.848Z,99.99
2022-09-09T12:33:30.830Z,99.21
2022-09-09T12:34:30.945Z,98.54
2022-09-09T12:35:30.806Z,98.92
2022-09-09T12:36:30.799Z,99.99
2022-09-09T12:37:30.777Z,99.99
2022-09-09T12:38:30.786Z,99.98
2022-09-09T12:39:30.888Z,99.99
2022-09-09T12:40:30.769Z,99.99
2022-09-09T12:41:30.738Z,99.11
2022-09-09T12:42:30.752Z,99.69
2022-09-09T12:43:30.756Z,99.99
2022-09-09T12:44:30.689Z,99.50
2022-09-09T12:45:30.678Z,98.44
2022-09-09T12:46:30.722Z,99.60
2022-09-09T12:47:31.548Z,98.39
2022-09-09T12:48:30.652Z,98.00
2022-09-09T12:49:30.631Z,98.97
2022-09-09T12:50:30.635Z,98.34
2022-09-09T12:51:30.600Z,99.79
2022-09-09T12:52:30.705Z,99.99
2022-09-09T12:53:30.582Z,98.63
2022-09-09T12:54:30.551Z,98.92